sensor_id;sensor_type;location;lat;lon;timestamp;P1;durP1;ratioP1;P2;durP2;ratioP2
33459;SDS011;19795;53.160;6.612;2022-09-09T03:54:04;407.40;;;281.38;;
33459;SDS011;19795;53.160;6.612;2022-09-09T03:59:21;408.27;;;282.58;;
33459;SDS011;19795;53.160;6.612;2022-09-09T04:01:48;399.17;;;268.08;;
33459;SDS011;19795;53.160;6.612;2022-09-09T04:04:13;402.65;;;264.08;;
33459;SDS011;19795;53.160;6.612;2022-09-09T04:06:39;428.38;;;269.15;;
33459;SDS011;19795;53.160;6.612;2022-09-09T04:09:04;429.90;;;267.02;;
33459;SDS011;19795;53.160;6.612;2022-09-09T04:11:30;425.20;;;265.38;;
33459;SDS011;19795;53.160;6.612;2022-09-09T04:13:56;422.38;;;260.55;;
33459;SDS011;19795;53.160;6.612;2022-09-09T04:16:21;432.48;;;271.73;;
33459;SDS011;19795;53.160;6.612;2022-09-09T04:18:47;421.48;;;260.38;;
33459;SDS011;19795;53.160;6.612;2022-09-09T04:21:13;438.45;;;259.27;;
33459;SDS011;19795;53.160;6.612;2022-09-09T04:23:40;439.05;;;259.67;;
33459;SDS011;19795;53.160;6.612;2022-09-09T04:26:06;434.40;;;251.48;;
33459;SDS011;19795;53.160;6.612;2022-09-09T04:28:32;443.13;;;269.15;;
33459;SDS011;19795;53.160;6.612;2022-09-09T04:31:10;442.92;;;260.27;;
33459;SDS011;19795;53.160;6.612;2022-09-09T04:33:40;429.67;;;252.32;;
33459;SDS011;19795;53.160;6.612;2022-09-09T04:36:06;419.38;;;246.25;;
33459;SDS011;19795;53.160;6.612;2022-09-09T04:38:32;414.77;;;247.02;;
33459;SDS011;19795;53.160;6.612;2022-09-09T04:40:57;415.65;;;239.18;;
33459;SDS011;19795;53.160;6.612;2022-09-09T04:43:23;411.55;;;234.88;;
33459;SDS011;19795;53.160;6.612;2022-09-09T04:45:50;402.25;;;237.82;;
33459;SDS011;19795;53.160;6.612;2022-09-09T04:48:19;402.92;;;231.13;;
33459;SDS011;19795;53.160;6.612;2022-09-09T04:51:20;393.30;;;223.40;;
33459;SDS011;19795;53.160;6.612;2022-09-09T04:53:39;394.38;;;221.43;;
33459;SDS011;19795;53.160;6.612;2022-09-09T04:56:08;399.52;;;222.98;;
33459;SDS011;19795;53.160;6.612;2022-09-09T04:58:40;408.70;;;225.07;;
33459;SDS011;19795;53.160;6.612;2022-09-09T05:01:27;405.88;;;232.70;;
33459;SDS011;19795;53.160;6.612;2022-09-09T05:03:53;397.40;;;233.30;;
33459;SDS011;19795;53.160;6.612;2022-09-09T05:06:19;392.60;;;236.30;;
33459;SDS011;19795;53.160;6.612;2022-09-09T05:08:46;386.55;;;228.63;;
33459;SDS011;19795;53.160;6.612;2022-09-09T05:13:47;386.70;;;233.32;;
33459;SDS011;19795;53.160;6.612;2022-09-09T05:16:13;395.65;;;239.90;;
33459;SDS011;19795;53.160;6.612;2022-09-09T05:18:40;396.25;;;243.90;;
33459;SDS011;19795;53.160;6.612;2022-09-09T05:21:07;384.05;;;240.82;;
33459;SDS011;19795;53.160;6.612;2022-09-09T05:23:34;383.27;;;241.65;;
33459;SDS011;19795;53.160;6.612;2022-09-09T05:26:00;390.60;;;240.10;;
33459;SDS011;19795;53.160;6.612;2022-09-09T05:28:26;384.98;;;241.50;;
33459;SDS011;19795;53.160;6.612;2022-09-09T05:30:59;380.85;;;234.80;;
33459;SDS011;19795;53.160;6.612;2022-09-09T05:33:29;389.73;;;239.05;;
33459;SDS011;19795;53.160;6.612;2022-09-09T05:35:57;388.40;;;241.68;;
33459;SDS011;19795;53.160;6.612;2022-09-09T05:38:23;386.75;;;239.18;;
33459;SDS011;19795;53.160;6.612;2022-09-09T05:40:52;385.75;;;239.95;;
33459;SDS011;19795;53.160;6.612;2022-09-09T05:43:19;376.38;;;235.43;;
33459;SDS011;19795;53.160;6.612;2022-09-09T05:45:45;403.95;;;235.13;;
33459;SDS011;19795;53.160;6.612;2022-09-09T05:48:12;403.70;;;237.55;;
33459;SDS011;19795;53.160;6.612;2022-09-09T05:50:41;401.42;;;237.90;;
33459;SDS011;19795;53.160;6.612;2022-09-09T05:53:08;404.23;;;243.43;;
33459;SDS011;19795;53.160;6.612;2022-09-09T05:55:34;411.67;;;243.88;;
33459;SDS011;19795;53.160;6.612;2022-09-09T05:58:00;415.48;;;247.38;;
33459;SDS011;19795;53.160;6.612;2022-09-09T06:00:26;405.35;;;247.27;;
33459;SDS011;19795;53.160;6.612;2022-09-09T06:02:52;404.23;;;242.68;;
33459;SDS011;19795;53.160;6.612;2022-09-09T06:05:18;390.77;;;233.50;;
33459;SDS011;19795;53.160;6.612;2022-09-09T06:07:44;383.92;;;233.45;;
33459;SDS011;19795;53.160;6.612;2022-09-09T06:10:10;373.20;;;229.25;;
33459;SDS011;19795;53.160;6.612;2022-09-09T06:12:38;373.00;;;221.95;;
33459;SDS011;19795;53.160;6.612;2022-09-09T06:15:04;371.13;;;220.88;;
33459;SDS011;19795;53.160;6.612;2022-09-09T06:17:30;373.10;;;225.48;;
33459;SDS011;19795;53.160;6.612;2022-09-09T06:19:56;377.77;;;225.02;;
33459;SDS011;19795;53.160;6.612;2022-09-09T06:22:22;376.15;;;224.98;;
33459;SDS011;19795;53.160;6.612;2022-09-09T06:24:48;376.95;;;225.65;;
33459;SDS011;19795;53.160;6.612;2022-09-09T06:27:14;373.30;;;223.27;;
33459;SDS011;19795;53.160;6.612;2022-09-09T06:29:39;370.30;;;214.02;;
33459;SDS011;19795;53.160;6.612;2022-09-09T06:32:05;374.17;;;214.75;;
33459;SDS011;19795;53.160;6.612;2022-09-09T06:34:33;357.05;;;218.10;;
33459;SDS011;19795;53.160;6.612;2022-09-09T06:37:00;343.05;;;218.48;;
33459;SDS011;19795;53.160;6.612;2022-09-09T06:39:26;338.38;;;212.77;;
33459;SDS011;19795;53.160;6.612;2022-09-09T06:41:51;337.17;;;210.65;;
33459;SDS011;19795;53.160;6.612;2022-09-09T06:44:18;338.50;;;208.15;;
33459;SDS011;19795;53.160;6.612;2022-09-09T06:46:45;330.90;;;211.07;;
33459;SDS011;19795;53.160;6.612;2022-09-09T06:49:12;320.40;;;207.40;;
33459;SDS011;19795;53.160;6.612;2022-09-09T06:51:41;293.92;;;211.05;;
33459;SDS011;19795;53.160;6.612;2022-09-09T06:54:10;275.20;;;199.00;;
33459;SDS011;19795;53.160;6.612;2022-09-09T06:56:38;256.17;;;201.65;;
33459;SDS011;19795;53.160;6.612;2022-09-09T06:59:07;227.18;;;201.90;;
33459;SDS011;19795;53.160;6.612;2022-09-09T07:01:41;212.23;;;190.40;;
33459;SDS011;19795;53.160;6.612;2022-09-09T07:04:11;194.25;;;174.77;;
33459;SDS011;19795;53.160;6.612;2022-09-09T07:06:40;190.20;;;172.52;;
33459;SDS011;19795;53.160;6.612;2022-09-09T07:09:11;184.70;;;168.20;;
33459;SDS011;19795;53.160;6.612;2022-09-09T07:11:42;175.75;;;159.85;;
33459;SDS011;19795;53.160;6.612;2022-09-09T07:14:10;170.40;;;155.95;;
33459;SDS011;19795;53.160;6.612;2022-09-09T07:16:40;164.75;;;152.32;;
33459;SDS011;19795;53.160;6.612;2022-09-09T07:19:07;153.18;;;143.10;;
33459;SDS011;19795;53.160;6.612;2022-09-09T07:21:33;142.07;;;133.95;;
33459;SDS011;19795;53.160;6.612;2022-09-09T07:23:59;146.35;;;137.95;;
33459;SDS011;19795;53.160;6.612;2022-09-09T07:26:27;149.85;;;141.70;;
33459;SDS011;19795;53.160;6.612;2022-09-09T07:28:55;124.25;;;118.03;;
33459;SDS011;19795;53.160;6.612;2022-09-09T07:31:31;112.43;;;106.53;;
33459;SDS011;19795;53.160;6.612;2022-09-09T07:33:59;78.45;;;74.55;;
33459;SDS011;19795;53.160;6.612;2022-09-09T07:36:31;47.97;;;45.38;;
33459;SDS011;19795;53.160;6.612;2022-09-09T07:38:59;24.00;;;22.40;;
33459;SDS011;19795;53.160;6.612;2022-09-09T07:41:28;13.63;;;12.43;;
33459;SDS011;19795;53.160;6.612;2022-09-09T07:43:57;8.77;;;7.88;;
33459;SDS011;19795;53.160;6.612;2022-09-09T07:46:24;9.50;;;7.22;;
33459;SDS011;19795;53.160;6.612;2022-09-09T07:48:54;11.57;;;7.78;;
33459;SDS011;19795;53.160;6.612;2022-09-09T07:51:24;8.38;;;7.57;;
33459;SDS011;19795;53.160;6.612;2022-09-09T07:53:53;6.57;;;5.88;;
33459;SDS011;19795;53.160;6.612;2022-09-09T07:56:20;7.85;;;6.15;;
33459;SDS011;19795;53.160;6.612;2022-09-09T07:58:50;8.52;;;5.53;;
33459;SDS011;19795;53.160;6.612;2022-09-09T08:01:18;8.77;;;5.75;;
33459;SDS011;19795;53.160;6.612;2022-09-09T08:03:44;7.65;;;5.40;;
33459;SDS011;19795;53.160;6.612;2022-09-09T08:06:11;7.18;;;5.15;;
33459;SDS011;19795;53.160;6.612;2022-09-09T08:08:39;9.40;;;5.88;;
33459;SDS011;19795;53.160;6.612;2022-09-09T08:11:10;7.68;;;5.07;;
33459;SDS011;19795;53.160;6.612;2022-09-09T08:13:39;7.72;;;4.47;;
33459;SDS011;19795;53.160;6.612;2022-09-09T08:16:11;5.85;;;3.85;;
33459;SDS011;19795;53.160;6.612;2022-09-09T08:18:39;7.78;;;4.10;;
33459;SDS011;19795;53.160;6.612;2022-09-09T08:21:06;6.57;;;4.00;;
33459;SDS011;19795;53.160;6.612;2022-09-09T08:23:32;6.57;;;3.83;;
33459;SDS011;19795;53.160;6.612;2022-09-09T08:26:05;7.53;;;4.20;;
33459;SDS011;19795;53.160;6.612;2022-09-09T08:28:35;7.95;;;3.63;;
33459;SDS011;19795;53.160;6.612;2022-09-09T08:31:05;7.47;;;3.67;;
33459;SDS011;19795;53.160;6.612;2022-09-09T08:33:35;8.45;;;3.58;;
33459;SDS011;19795;53.160;6.612;2022-09-09T08:36:03;11.82;;;4.15;;
33459;SDS011;19795;53.160;6.612;2022-09-09T08:38:29;7.53;;;3.75;;
33459;SDS011;19795;53.160;6.612;2022-09-09T08:43:51;7.97;;;4.32;;
33459;SDS011;19795;53.160;6.612;2022-09-09T08:46:38;8.13;;;4.38;;
33459;SDS011;19795;53.160;6.612;2022-09-09T08:51:53;9.93;;;4.72;;
33459;SDS011;19795;53.160;6.612;2022-09-09T08:54:22;6.90;;;3.85;;
33459;SDS011;19795;53.160;6.612;2022-09-09T08:56:48;6.72;;;4.05;;
33459;SDS011;19795;53.160;6.612;2022-09-09T08:59:17;7.75;;;4.30;;
33459;SDS011;19795;53.160;6.612;2022-09-09T09:12:43;7.45;;;4.10;;
33459;SDS011;19795;53.160;6.612;2022-09-09T09:15:23;9.93;;;4.30;;
33459;SDS011;19795;53.160;6.612;2022-09-09T09:17:51;6.95;;;3.72;;
33459;SDS011;19795;53.160;6.612;2022-09-09T09:20:18;6.65;;;3.92;;
33459;SDS011;19795;53.160;6.612;2022-09-09T09:22:52;9.18;;;4.43;;
33459;SDS011;19795;53.160;6.612;2022-09-09T09:30:51;9.60;;;3.33;;
33459;SDS011;19795;53.160;6.612;2022-09-09T09:36:14;9.70;;;3.65;;
33459;SDS011;19795;53.160;6.612;2022-09-09T09:38:51;10.57;;;3.38;;
33459;SDS011;19795;53.160;6.612;2022-09-09T09:47:12;9.38;;;3.50;;
33459;SDS011;19795;53.160;6.612;2022-09-09T09:49:56;6.68;;;3.47;;
33459;SDS011;19795;53.160;6.612;2022-09-09T09:52:25;9.20;;;3.83;;
33459;SDS011;19795;53.160;6.612;2022-09-09T09:54:54;8.88;;;3.45;;
33459;SDS011;19795;53.160;6.612;2022-09-09T09:57:28;7.38;;;3.15;;
33459;SDS011;19795;53.160;6.612;2022-09-09T10:02:40;8.80;;;3.13;;
33459;SDS011;19795;53.160;6.612;2022-09-09T10:05:13;12.65;;;3.20;;
33459;SDS011;19795;53.160;6.612;2022-09-09T10:07:45;9.63;;;2.95;;
33459;SDS011;19795;53.160;6.612;2022-09-09T10:10:30;11.63;;;2.85;;
33459;SDS011;19795;53.160;6.612;2022-09-09T10:18:56;9.93;;;2.40;;
33459;SDS011;19795;53.160;6.612;2022-09-09T10:27:05;7.57;;;1.92;;
33459;SDS011;19795;53.160;6.612;2022-09-09T10:29:56;8.98;;;2.28;;
33459;SDS011;19795;53.160;6.612;2022-09-09T10:35:31;9.73;;;2.30;;
33459;SDS011;19795;53.160;6.612;2022-09-09T10:46:14;7.93;;;1.90;;
33459;SDS011;19795;53.160;6.612;2022-09-09T10:57:27;7.80;;;1.88;;
33459;SDS011;19795;53.160;6.612;2022-09-09T11:00:02;7.45;;;2.00;;
33459;SDS011;19795;53.160;6.612;2022-09-09T11:02:39;7.63;;;1.63;;
33459;SDS011;19795;53.160;6.612;2022-09-09T11:05:18;12.90;;;1.80;;
33459;SDS011;19795;53.160;6.612;2022-09-09T11:08:00;7.72;;;1.95;;
33459;SDS011;19795;53.160;6.612;2022-09-09T11:13:11;7.57;;;1.60;;
33459;SDS011;19795;53.160;6.612;2022-09-09T11:15:45;6.47;;;1.63;;
33459;SDS011;19795;53.160;6.612;2022-09-09T11:18:20;7.28;;;1.60;;
33459;SDS011;19795;53.160;6.612;2022-09-09T11:20:49;5.82;;;1.38;;
33459;SDS011;19795;53.160;6.612;2022-09-09T11:23:23;4.57;;;1.20;;
33459;SDS011;19795;53.160;6.612;2022-09-09T11:25:58;9.57;;;1.60;;
33459;SDS011;19795;53.160;6.612;2022-09-09T11:44:37;5.65;;;1.50;;
33459;SDS011;19795;53.160;6.612;2022-09-09T11:47:03;7.53;;;1.70;;
33459;SDS011;19795;53.160;6.612;2022-09-09T11:49:41;7.93;;;1.52;;
33459;SDS011;19795;53.160;6.612;2022-09-09T11:55:11;9.00;;;1.73;;
33459;SDS011;19795;53.160;6.612;2022-09-09T11:58:14;6.28;;;1.60;;
33459;SDS011;19795;53.160;6.612;2022-09-09T12:06:00;6.68;;;1.50;;
33459;SDS011;19795;53.160;6.612;2022-09-09T12:08:53;6.88;;;1.33;;
33459;SDS011;19795;53.160;6.612;2022-09-09T12:11:29;5.75;;;1.30;;
33459;SDS011;19795;53.160;6.612;2022-09-09T12:13:58;8.15;;;1.35;;
33459;SDS011;19795;53.160;6.612;2022-09-09T12:27:46;10.80;;;1.65;;
33459;SDS011;19795;53.160;6.612;2022-09-09T12:30:23;5.60;;;1.50;;
33459;SDS011;19795;53.160;6.612;2022-09-09T12:33:08;4.75;;;1.10;;
33459;SDS011;19795;53.160;6.612;2022-09-09T12:35:40;5.65;;;1.50;;
33459;SDS011;19795;53.160;6.612;2022-09-09T12:38:14;6.90;;;1.50;;
33459;SDS011;19795;53.160;6.612;2022-09-09T12:40:54;7.80;;;1.92;;
33459;SDS011;19795;53.160;6.612;2022-09-09T12:43:22;7.00;;;1.67;;
33459;SDS011;19795;53.160;6.612;2022-09-09T12:45:50;6.68;;;1.45;;
33459;SDS011;19795;53.160;6.612;2022-09-09T12:48:22;7.05;;;1.70;;
33459;SDS011;19795;53.160;6.612;2022-09-09T12:50:59;7.10;;;1.70;;
33459;SDS011;19795;53.160;6.612;2022-09-09T12:53:36;5.70;;;1.77;;
33459;SDS011;19795;53.160;6.612;2022-09-09T12:56:05;5.88;;;1.38;;
33459;SDS011;19795;53.160;6.612;2022-09-09T12:58:33;6.20;;;1.65;;
33459;SDS011;19795;53.160;6.612;2022-09-09T13:01:02;10.52;;;1.58;;
33459;SDS011;19795;53.160;6.612;2022-09-09T13:03:30;4.50;;;1.50;;
33459;SDS011;19795;53.160;6.612;2022-09-09T13:06:13;7.32;;;1.33;;
33459;SDS011;19795;53.160;6.612;2022-09-09T13:08:44;6.75;;;1.48;;
33459;SDS011;19795;53.160;6.612;2022-09-09T13:11:10;7.40;;;1.52;;
33459;SDS011;19795;53.160;6.612;2022-09-09T13:13:42;6.55;;;1.10;;
33459;SDS011;19795;53.160;6.612;2022-09-09T13:16:19;6.55;;;1.40;;
33459;SDS011;19795;53.160;6.612;2022-09-09T13:18:51;6.50;;;1.63;;
33459;SDS011;19795;53.160;6.612;2022-09-09T13:21:18;6.25;;;1.50;;
33459;SDS011;19795;53.160;6.612;2022-09-09T13:23:48;7.22;;;1.25;;
33459;SDS011;19795;53.160;6.612;2022-09-09T13:28:52;5.40;;;1.30;;
33459;SDS011;19795;53.160;6.612;2022-09-09T13:31:37;6.95;;;1.30;;
33459;SDS011;19795;53.160;6.612;2022-09-09T13:37:01;5.05;;;1.23;;
33459;SDS011;19795;53.160;6.612;2022-09-09T13:39:31;5.57;;;1.47;;
33459;SDS011;19795;53.160;6.612;2022-09-09T13:41:59;7.43;;;1.52;;
33459;SDS011;19795;53.160;6.612;2022-09-09T13:44:31;5.00;;;1.15;;
33459;SDS011;19795;53.160;6.612;2022-09-09T13:49:30;5.43;;;1.05;;
33459;SDS011;19795;53.160;6.612;2022-09-09T13:52:11;8.48;;;1.33;;
33459;SDS011;19795;53.160;6.612;2022-09-09T13:54:42;4.25;;;1.20;;
33459;SDS011;19795;53.160;6.612;2022-09-09T13:57:26;6.70;;;1.10;;
33459;SDS011;19795;53.160;6.612;2022-09-09T13:59:52;5.10;;;0.80;;
33459;SDS011;19795;53.160;6.612;2022-09-09T14:02:22;4.35;;;0.75;;
33459;SDS011;19795;53.160;6.612;2022-09-09T14:04:48;2.05;;;0.50;;
33459;SDS011;19795;53.160;6.612;2022-09-09T14:07:16;2.70;;;0.40;;
33459;SDS011;19795;53.160;6.612;2022-09-09T14:09:43;2.72;;;0.50;;
33459;SDS011;19795;53.160;6.612;2022-09-09T14:12:13;2.45;;;0.50;;
33459;SDS011;19795;53.160;6.612;2022-09-09T14:14:40;3.55;;;0.70;;
33459;SDS011;19795;53.160;6.612;2022-09-09T14:17:07;1.38;;;0.70;;
33459;SDS011;19795;53.160;6.612;2022-09-09T14:19:33;3.42;;;1.15;;
33459;SDS011;19795;53.160;6.612;2022-09-09T14:21:59;1.73;;;0.63;;
33459;SDS011;19795;53.160;6.612;2022-09-09T14:24:25;3.42;;;0.68;;
33459;SDS011;19795;53.160;6.612;2022-09-09T14:26:51;4.57;;;0.95;;
33459;SDS011;19795;53.160;6.612;2022-09-09T14:29:16;5.20;;;0.75;;
33459;SDS011;19795;53.160;6.612;2022-09-09T14:31:42;3.92;;;1.00;;
33459;SDS011;19795;53.160;6.612;2022-09-09T14:34:08;4.20;;;0.90;;
33459;SDS011;19795;53.160;6.612;2022-09-09T14:36:36;2.28;;;0.88;;
33459;SDS011;19795;53.160;6.612;2022-09-09T14:39:02;4.30;;;0.70;;
33459;SDS011;19795;53.160;6.612;2022-09-09T14:41:29;5.43;;;1.25;;
33459;SDS011;19795;53.160;6.612;2022-09-09T14:43:55;7.70;;;1.45;;
33459;SDS011;19795;53.160;6.612;2022-09-09T14:46:21;4.28;;;1.33;;
33459;SDS011;19795;53.160;6.612;2022-09-09T14:48:47;7.10;;;1.60;;
33459;SDS011;19795;53.160;6.612;2022-09-09T14:51:20;5.35;;;1.70;;
33459;SDS011;19795;53.160;6.612;2022-09-09T14:53:48;5.65;;;1.52;;
33459;SDS011;19795;53.160;6.612;2022-09-09T14:56:18;5.28;;;1.98;;
33459;SDS011;19795;53.160;6.612;2022-09-09T14:58:47;4.78;;;2.10;;
33459;SDS011;19795;53.160;6.612;2022-09-09T15:01:17;4.18;;;2.25;;
33459;SDS011;19795;53.160;6.612;2022-09-09T15:03:48;4.97;;;1.77;;
33459;SDS011;19795;53.160;6.612;2022-09-09T15:06:17;4.17;;;1.63;;
33459;SDS011;19795;53.160;6.612;2022-09-09T15:08:44;3.72;;;1.70;;
33459;SDS011;19795;53.160;6.612;2022-09-09T15:11:11;4.65;;;1.63;;
33459;SDS011;19795;53.160;6.612;2022-09-09T15:13:38;5.75;;;1.60;;
33459;SDS011;19795;53.160;6.612;2022-09-09T15:16:08;5.43;;;1.50;;
33459;SDS011;19795;53.160;6.612;2022-09-09T15:18:36;4.75;;;1.40;;
33459;SDS011;19795;53.160;6.612;2022-09-09T15:21:05;5.90;;;1.65;;
33459;SDS011;19795;53.160;6.612;2022-09-09T15:23:34;6.70;;;1.80;;
33459;SDS011;19795;53.160;6.612;2022-09-09T15:26:01;6.47;;;1.10;;
33459;SDS011;19795;53.160;6.612;2022-09-09T15:28:27;6.05;;;1.60;;
33459;SDS011;19795;53.160;6.612;2022-09-09T15:30:54;7.40;;;1.58;;
33459;SDS011;19795;53.160;6.612;2022-09-09T15:33:20;4.97;;;1.20;;
33459;SDS011;19795;53.160;6.612;2022-09-09T15:35:47;5.72;;;1.30;;
33459;SDS011;19795;53.160;6.612;2022-09-09T15:38:14;5.55;;;0.98;;
33459;SDS011;19795;53.160;6.612;2022-09-09T15:40:41;4.60;;;0.98;;
33459;SDS011;19795;53.160;6.612;2022-09-09T15:43:08;3.00;;;0.80;;
33459;SDS011;19795;53.160;6.612;2022-09-09T15:45:39;2.95;;;0.95;;
33459;SDS011;19795;53.160;6.612;2022-09-09T15:48:04;3.08;;;1.17;;
33459;SDS011;19795;53.160;6.612;2022-09-09T15:50:30;2.78;;;0.93;;
33459;SDS011;19795;53.160;6.612;2022-09-09T15:52:56;2.33;;;0.90;;
33459;SDS011;19795;53.160;6.612;2022-09-09T15:55:22;2.47;;;0.75;;
33459;SDS011;19795;53.160;6.612;2022-09-09T15:58:06;5.57;;;1.42;;
33459;SDS011;19795;53.160;6.612;2022-09-09T16:00:37;2.50;;;1.10;;
33459;SDS011;19795;53.160;6.612;2022-09-09T16:03:03;3.92;;;1.05;;
33459;SDS011;19795;53.160;6.612;2022-09-09T16:05:29;3.47;;;1.20;;
33459;SDS011;19795;53.160;6.612;2022-09-09T16:07:54;2.67;;;1.40;;
33459;SDS011;19795;53.160;6.612;2022-09-09T16:10:20;4.32;;;1.27;;
33459;SDS011;19795;53.160;6.612;2022-09-09T16:12:46;4.05;;;1.20;;
33459;SDS011;19795;53.160;6.612;2022-09-09T16:15:11;3.70;;;1.45;;
33459;SDS011;19795;53.160;6.612;2022-09-09T16:17:37;3.45;;;1.45;;
33459;SDS011;19795;53.160;6.612;2022-09-09T16:20:03;5.15;;;1.42;;
33459;SDS011;19795;53.160;6.612;2022-09-09T16:22:32;4.53;;;1.25;;
33459;SDS011;19795;53.160;6.612;2022-09-09T16:24:57;4.60;;;1.60;;
33459;SDS011;19795;53.160;6.612;2022-09-09T16:27:23;5.68;;;1.60;;
33459;SDS011;19795;53.160;6.612;2022-09-09T16:29:49;3.72;;;1.63;;
33459;SDS011;19795;53.160;6.612;2022-09-09T16:32:14;5.10;;;1.77;;
33459;SDS011;19795;53.160;6.612;2022-09-09T16:34:40;6.85;;;1.70;;
33459;SDS011;19795;53.160;6.612;2022-09-09T16:37:07;5.43;;;2.47;;
33459;SDS011;19795;53.160;6.612;2022-09-09T16:39:32;5.70;;;2.58;;
33459;SDS011;19795;53.160;6.612;2022-09-09T16:41:58;8.90;;;3.00;;
33459;SDS011;19795;53.160;6.612;2022-09-09T16:44:24;6.28;;;2.70;;
33459;SDS011;19795;53.160;6.612;2022-09-09T16:46:51;8.30;;;3.22;;
33459;SDS011;19795;53.160;6.612;2022-09-09T16:49:17;5.20;;;2.60;;
33459;SDS011;19795;53.160;6.612;2022-09-09T16:51:43;7.20;;;2.10;;
33459;SDS011;19795;53.160;6.612;2022-09-09T16:54:14;3.15;;;1.83;;
33459;SDS011;19795;53.160;6.612;2022-09-09T16:56:43;6.40;;;2.33;;
33459;SDS011;19795;53.160;6.612;2022-09-09T16:59:11;8.35;;;2.67;;
33459;SDS011;19795;53.160;6.612;2022-09-09T17:01:39;7.85;;;3.30;;
33459;SDS011;19795;53.160;6.612;2022-09-09T17:04:10;5.35;;;2.60;;
33459;SDS011;19795;53.160;6.612;2022-09-09T17:06:38;6.10;;;2.20;;
33459;SDS011;19795;53.160;6.612;2022-09-09T17:09:07;4.88;;;1.90;;
33459;SDS011;19795;53.160;6.612;2022-09-09T17:11:35;4.72;;;1.88;;
33459;SDS011;19795;53.160;6.612;2022-09-09T17:14:02;3.83;;;2.35;;
33459;SDS011;19795;53.160;6.612;2022-09-09T17:16:29;8.60;;;2.20;;
33459;SDS011;19795;53.160;6.612;2022-09-09T17:18:56;6.28;;;2.70;;
33459;SDS011;19795;53.160;6.612;2022-09-09T17:21:24;4.20;;;2.40;;
33459;SDS011;19795;53.160;6.612;2022-09-09T17:23:51;5.38;;;2.60;;
33459;SDS011;19795;53.160;6.612;2022-09-09T17:26:20;8.85;;;2.92;;
33459;SDS011;19795;53.160;6.612;2022-09-09T17:28:47;6.30;;;2.45;;
33459;SDS011;19795;53.160;6.612;2022-09-09T17:31:14;5.78;;;2.90;;
33459;SDS011;19795;53.160;6.612;2022-09-09T17:33:46;3.92;;;2.90;;
33459;SDS011;19795;53.160;6.612;2022-09-09T17:36:18;4.07;;;3.03;;
33459;SDS011;19795;53.160;6.612;2022-09-09T17:41:18;7.78;;;3.30;;
33459;SDS011;19795;53.160;6.612;2022-09-09T17:43:49;6.28;;;3.20;;
33459;SDS011;19795;53.160;6.612;2022-09-09T17:46:17;6.07;;;3.60;;
33459;SDS011;19795;53.160;6.612;2022-09-09T17:48:45;4.13;;;3.17;;
33459;SDS011;19795;53.160;6.612;2022-09-09T17:51:12;4.25;;;3.40;;
33459;SDS011;19795;53.160;6.612;2022-09-09T17:53:52;8.73;;;3.80;;
33459;SDS011;19795;53.160;6.612;2022-09-09T17:56:21;5.85;;;4.05;;
33459;SDS011;19795;53.160;6.612;2022-09-09T17:58:48;4.85;;;3.83;;
33459;SDS011;19795;53.160;6.612;2022-09-09T18:01:16;5.22;;;4.05;;
33459;SDS011;19795;53.160;6.612;2022-09-09T18:03:43;6.47;;;4.20;;
33459;SDS011;19795;53.160;6.612;2022-09-09T18:06:12;5.00;;;4.20;;
33459;SDS011;19795;53.160;6.612;2022-09-09T18:08:46;5.95;;;4.68;;
33459;SDS011;19795;53.160;6.612;2022-09-09T18:11:17;6.22;;;4.65;;
33459;SDS011;19795;53.160;6.612;2022-09-09T18:13:52;5.78;;;5.18;;
33459;SDS011;19795;53.160;6.612;2022-09-09T18:16:20;6.80;;;5.20;;
33459;SDS011;19795;53.160;6.612;2022-09-09T18:18:46;7.57;;;5.40;;
33459;SDS011;19795;53.160;6.612;2022-09-09T18:21:14;7.13;;;5.68;;
33459;SDS011;19795;53.160;6.612;2022-09-09T18:23:41;7.63;;;5.45;;
33459;SDS011;19795;53.160;6.612;2022-09-09T18:26:08;5.72;;;5.13;;
33459;SDS011;19795;53.160;6.612;2022-09-09T18:28:38;8.50;;;5.88;;
33459;SDS011;19795;53.160;6.612;2022-09-09T18:31:08;8.57;;;5.03;;
33459;SDS011;19795;53.160;6.612;2022-09-09T18:33:36;7.90;;;5.53;;
33459;SDS011;19795;53.160;6.612;2022-09-09T18:36:08;6.68;;;5.30;;
33459;SDS011;19795;53.160;6.612;2022-09-09T18:38:36;7.18;;;5.53;;
33459;SDS011;19795;53.160;6.612;2022-09-09T18:43:47;6.50;;;5.97;;
33459;SDS011;19795;53.160;6.612;2022-09-09T18:46:14;8.25;;;5.80;;
33459;SDS011;19795;53.160;6.612;2022-09-09T18:48:41;7.03;;;6.32;;
33459;SDS011;19795;53.160;6.612;2022-09-09T18:51:10;6.95;;;6.25;;
33459;SDS011;19795;53.160;6.612;2022-09-09T18:53:36;6.95;;;5.95;;
33459;SDS011;19795;53.160;6.612;2022-09-09T18:56:04;7.68;;;6.57;;
33459;SDS011;19795;53.160;6.612;2022-09-09T18:58:31;8.88;;;6.90;;
33459;SDS011;19795;53.160;6.612;2022-09-09T19:00:57;9.50;;;7.05;;
33459;SDS011;19795;53.160;6.612;2022-09-09T19:03:27;6.47;;;5.75;;
33459;SDS011;19795;53.160;6.612;2022-09-09T19:06:00;7.35;;;5.45;;
33459;SDS011;19795;53.160;6.612;2022-09-09T19:08:30;5.90;;;4.57;;
33459;SDS011;19795;53.160;6.612;2022-09-09T19:11:01;5.63;;;4.57;;
33459;SDS011;19795;53.160;6.612;2022-09-09T19:13:31;5.18;;;4.32;;
33459;SDS011;19795;53.160;6.612;2022-09-09T19:18:31;8.60;;;7.18;;
33459;SDS011;19795;53.160;6.612;2022-09-09T19:21:19;8.02;;;6.78;;
33459;SDS011;19795;53.160;6.612;2022-09-09T19:23:47;9.77;;;8.52;;
33459;SDS011;19795;53.160;6.612;2022-09-09T19:26:18;10.35;;;9.32;;
33459;SDS011;19795;53.160;6.612;2022-09-09T19:28:47;12.13;;;11.00;;
33459;SDS011;19795;53.160;6.612;2022-09-09T19:31:15;11.55;;;10.50;;
33459;SDS011;19795;53.160;6.612;2022-09-09T19:33:43;15.32;;;14.13;;
33459;SDS011;19795;53.160;6.612;2022-09-09T19:36:11;19.17;;;17.98;;
33459;SDS011;19795;53.160;6.612;2022-09-09T19:38:41;21.15;;;19.48;;
33459;SDS011;19795;53.160;6.612;2022-09-09T19:41:10;22.88;;;21.35;;
33459;SDS011;19795;53.160;6.612;2022-09-09T19:43:37;26.83;;;24.90;;
33459;SDS011;19795;53.160;6.612;2022-09-09T19:46:05;30.02;;;28.25;;
33459;SDS011;19795;53.160;6.612;2022-09-09T19:48:35;31.73;;;29.90;;
33459;SDS011;19795;53.160;6.612;2022-09-09T19:51:10;34.83;;;32.72;;
33459;SDS011;19795;53.160;6.612;2022-09-09T19:53:39;36.10;;;33.97;;
33459;SDS011;19795;53.160;6.612;2022-09-09T19:56:07;40.60;;;38.40;;
33459;SDS011;19795;53.160;6.612;2022-09-09T19:58:36;45.88;;;42.85;;
33459;SDS011;19795;53.160;6.612;2022-09-09T20:01:10;47.60;;;45.00;;
33459;SDS011;19795;53.160;6.612;2022-09-09T20:03:41;44.58;;;42.17;;
33459;SDS011;19795;53.160;6.612;2022-09-09T20:06:10;53.17;;;50.38;;
33459;SDS011;19795;53.160;6.612;2022-09-09T20:08:37;55.50;;;52.60;;
33459;SDS011;19795;53.160;6.612;2022-09-09T20:11:04;60.70;;;57.53;;
33459;SDS011;19795;53.160;6.612;2022-09-09T20:13:31;66.28;;;62.90;;
33459;SDS011;19795;53.160;6.612;2022-09-09T20:15:59;70.30;;;66.60;;
33459;SDS011;19795;53.160;6.612;2022-09-09T20:18:28;75.20;;;71.38;;
33459;SDS011;19795;53.160;6.612;2022-09-09T20:20:59;82.35;;;78.10;;
33459;SDS011;19795;53.160;6.612;2022-09-09T20:23:26;81.88;;;77.75;;
33459;SDS011;19795;53.160;6.612;2022-09-09T20:25:52;94.00;;;89.20;;
33459;SDS011;19795;53.160;6.612;2022-09-09T20:28:19;95.25;;;90.78;;
33459;SDS011;19795;53.160;6.612;2022-09-09T20:30:45;97.80;;;93.05;;
33459;SDS011;19795;53.160;6.612;2022-09-09T20:33:17;99.82;;;95.05;;
33459;SDS011;19795;53.160;6.612;2022-09-09T20:35:43;101.45;;;96.53;;
33459;SDS011;19795;53.160;6.612;2022-09-09T20:38:09;104.13;;;99.25;;
33459;SDS011;19795;53.160;6.612;2022-09-09T20:40:35;101.63;;;96.47;;